This is the latest recevied weather packets stored in our database for station/object KD8TSA. If no packets are shown the sender has not sent any weather packets the latest 10 day(s).
| Time | Temp. | Humidity | Pressure | Rain* | Wind** | Luminosity | Snow |
|---|---|---|---|---|---|---|---|
| 1777583304 | 13.89° C | 57% | 1014.5 hPa | 0 mm | - | 479 W/m² | - |
| 1777582999 | 13.89° C | 58% | 1014.6 hPa | 0 mm | - | 262 W/m² | - |
| 1777582697 | 14.44° C | 56% | 1014.5 hPa | 0 mm | - | 318 W/m² | - |
| 1777582392 | 13.89° C | 54% | 1014.7 hPa | 0 mm | - | 524 W/m² | - |
| 1777582091 | 13.89° C | 56% | 1014.6 hPa | 0 mm | - | 542 W/m² | - |
| 1777581791 | 13.33° C | 59% | 1014.5 hPa | 0 mm | - | 547 W/m² | - |
| 1777581490 | 13.33° C | 60% | 1014.5 hPa | 0 mm | - | 572 W/m² | - |
| 1777581185 | 13.89° C | 58% | 1014.6 hPa | 0 mm | - | 155 W/m² | - |
| 1777580879 | 13.89° C | 57% | 1014.6 hPa | 0 mm | - | 567 W/m² | - |
| 1777580574 | 13.89° C | 60% | 1014.6 hPa | 0 mm | - | 260 W/m² | - |
| 1777580270 | 13.89° C | 61% | 1014.7 hPa | 0 mm | - | 525 W/m² | - |
| 1777579968 | 13.89° C | 62% | 1014.8 hPa | 0 mm | - | 602 W/m² | - |
| 1777579657 | 13.33° C | 60% | 1014.9 hPa | 0 mm | - | 161 W/m² | - |
| 1777579357 | 13.89° C | 60% | 1014.8 hPa | 0 mm | - | 285 W/m² | - |
| 1777579051 | 13.89° C | 60% | 1014.8 hPa | 0 mm | - | 627 W/m² | - |
| 1777578741 | 13.89° C | 64% | 1015 hPa | 0 mm | - | 618 W/m² | - |
| 1777578441 | 13.89° C | 60% | 1014.9 hPa | 0 mm | - | 600 W/m² | - |
| 1777578137 | 13.33° C | 63% | 1015 hPa | 0 mm | - | 640 W/m² | - |
| 1777577833 | 13.89° C | 63% | 1015.1 hPa | 0 mm | - | 209 W/m² | - |
| 1777577529 | 13.89° C | 63% | 1014.9 hPa | 0 mm | - | 758 W/m² | - |
| 1777577226 | 13.89° C | 61% | 1014.8 hPa | 0 mm | - | 802 W/m² | - |
| 1777576922 | 13.89° C | 61% | 1015.1 hPa | 0 mm | - | 414 W/m² | - |
| 1777576617 | 13.33° C | 63% | 1015.1 hPa | 0 mm | - | 891 W/m² | - |
| 1777576312 | 12.78° C | 62% | 1015.1 hPa | 0 mm | - | 891 W/m² | - |
| 1777576009 | 12.78° C | 61% | 1015.3 hPa | 0 mm | - | 274 W/m² | - |
* Rain latest hour (hover to see other rain measurements)
** Current wind speed in m/s (hover to see current wind gust speed)